sensor_id;sensor_type;location;lat;lon;timestamp;temperature;humidity
44359;DHT22;30077;52.474;13.326;2024-03-06T00:06:56;3.40;99.90
44359;DHT22;30077;52.474;13.326;2024-03-06T00:16:58;3.40;99.90
44359;DHT22;30077;52.474;13.326;2024-03-06T00:26:58;3.30;99.90
44359;DHT22;30077;52.474;13.326;2024-03-06T00:36:59;3.20;99.90
44359;DHT22;30077;52.474;13.326;2024-03-06T00:47:00;3.20;99.90
44359;DHT22;30077;52.474;13.326;2024-03-06T00:57:00;3.10;99.90
44359;DHT22;30077;52.474;13.326;2024-03-06T01:07:02;3.10;99.90
44359;DHT22;30077;52.474;13.326;2024-03-06T01:17:02;3.10;99.90
44359;DHT22;30077;52.474;13.326;2024-03-06T01:27:05;3.10;99.90
44359;DHT22;30077;52.474;13.326;2024-03-06T01:37:06;3.10;99.90
44359;DHT22;30077;52.474;13.326;2024-03-06T01:47:07;3.10;99.90
44359;DHT22;30077;52.474;13.326;2024-03-06T01:57:08;3.00;99.90
44359;DHT22;30077;52.474;13.326;2024-03-06T02:07:10;2.90;99.90
44359;DHT22;30077;52.474;13.326;2024-03-06T02:17:11;3.00;99.90
44359;DHT22;30077;52.474;13.326;2024-03-06T02:27:12;3.00;99.90
44359;DHT22;30077;52.474;13.326;2024-03-06T02:37:13;3.00;99.90
44359;DHT22;30077;52.474;13.326;2024-03-06T02:47:13;2.80;99.90
44359;DHT22;30077;52.474;13.326;2024-03-06T02:57:14;2.80;99.90
44359;DHT22;30077;52.474;13.326;2024-03-06T03:07:15;2.70;99.90
44359;DHT22;30077;52.474;13.326;2024-03-06T03:17:18;2.70;99.90
44359;DHT22;30077;52.474;13.326;2024-03-06T03:27:19;2.60;99.90
44359;DHT22;30077;52.474;13.326;2024-03-06T03:37:20;2.60;99.90
44359;DHT22;30077;52.474;13.326;2024-03-06T03:47:21;2.50;99.90
44359;DHT22;30077;52.474;13.326;2024-03-06T03:57:22;2.60;99.90
44359;DHT22;30077;52.474;13.326;2024-03-06T04:07:23;2.50;99.90
44359;DHT22;30077;52.474;13.326;2024-03-06T04:17:23;2.50;99.90
44359;DHT22;30077;52.474;13.326;2024-03-06T04:27:25;2.40;99.90
44359;DHT22;30077;52.474;13.326;2024-03-06T04:37:26;2.40;99.90
44359;DHT22;30077;52.474;13.326;2024-03-06T04:47:27;2.50;99.90
44359;DHT22;30077;52.474;13.326;2024-03-06T04:57:28;2.40;99.90
44359;DHT22;30077;52.474;13.326;2024-03-06T05:07:29;2.50;99.90
44359;DHT22;30077;52.474;13.326;2024-03-06T05:17:30;2.50;99.90
44359;DHT22;30077;52.474;13.326;2024-03-06T05:27:31;2.60;99.90
44359;DHT22;30077;52.474;13.326;2024-03-06T05:37:32;2.60;99.90
44359;DHT22;30077;52.474;13.326;2024-03-06T05:47:32;2.50;99.90
44359;DHT22;30077;52.474;13.326;2024-03-06T05:57:33;2.60;99.90
44359;DHT22;30077;52.474;13.326;2024-03-06T06:07:34;2.60;99.90
44359;DHT22;30077;52.474;13.326;2024-03-06T06:17:34;2.60;99.90
44359;DHT22;30077;52.474;13.326;2024-03-06T06:27:35;2.60;99.90
44359;DHT22;30077;52.474;13.326;2024-03-06T06:37:36;2.70;99.90
44359;DHT22;30077;52.474;13.326;2024-03-06T06:47:37;2.70;99.90
44359;DHT22;30077;52.474;13.326;2024-03-06T06:57:40;2.90;99.90
44359;DHT22;30077;52.474;13.326;2024-03-06T07:07:41;3.20;99.90
44359;DHT22;30077;52.474;13.326;2024-03-06T07:17:42;3.30;99.90
44359;DHT22;30077;52.474;13.326;2024-03-06T07:27:42;3.60;99.90
44359;DHT22;30077;52.474;13.326;2024-03-06T07:37:43;3.80;99.90
44359;DHT22;30077;52.474;13.326;2024-03-06T07:47:45;4.10;99.90
44359;DHT22;30077;52.474;13.326;2024-03-06T07:57:45;4.40;99.90
44359;DHT22;30077;52.474;13.326;2024-03-06T08:07:46;4.40;99.90
44359;DHT22;30077;52.474;13.326;2024-03-06T08:17:49;4.70;99.90
44359;DHT22;30077;52.474;13.326;2024-03-06T08:27:52;4.80;99.90
44359;DHT22;30077;52.474;13.326;2024-03-06T08:37:52;5.10;99.90
44359;DHT22;30077;52.474;13.326;2024-03-06T08:47:53;5.50;99.90
44359;DHT22;30077;52.474;13.326;2024-03-06T08:57:54;5.70;99.90
44359;DHT22;30077;52.474;13.326;2024-03-06T09:07:55;6.20;99.90
44359;DHT22;30077;52.474;13.326;2024-03-06T09:17:57;6.40;99.90
44359;DHT22;30077;52.474;13.326;2024-03-06T09:27:58;7.10;99.90
44359;DHT22;30077;52.474;13.326;2024-03-06T09:38:00;6.90;99.90
44359;DHT22;30077;52.474;13.326;2024-03-06T09:48:01;7.60;99.90
44359;DHT22;30077;52.474;13.326;2024-03-06T09:58:02;7.50;99.90
44359;DHT22;30077;52.474;13.326;2024-03-06T10:08:05;7.40;99.90
44359;DHT22;30077;52.474;13.326;2024-03-06T10:18:18;6.90;99.90
44359;DHT22;30077;52.474;13.326;2024-03-06T10:28:21;7.20;99.90
44359;DHT22;30077;52.474;13.326;2024-03-06T10:38:26;8.50;99.90
44359;DHT22;30077;52.474;13.326;2024-03-06T10:48:28;7.50;99.90
44359;DHT22;30077;52.474;13.326;2024-03-06T10:58:29;7.70;99.90
44359;DHT22;30077;52.474;13.326;2024-03-06T11:08:31;8.20;99.90
44359;DHT22;30077;52.474;13.326;2024-03-06T11:28:36;8.00;99.90
44359;DHT22;30077;52.474;13.326;2024-03-06T11:38:38;7.30;99.90
44359;DHT22;30077;52.474;13.326;2024-03-06T11:48:39;7.20;99.90
44359;DHT22;30077;52.474;13.326;2024-03-06T11:58:41;8.60;99.90
44359;DHT22;30077;52.474;13.326;2024-03-06T12:08:42;7.50;99.90
44359;DHT22;30077;52.474;13.326;2024-03-06T12:18:43;8.10;99.90
44359;DHT22;30077;52.474;13.326;2024-03-06T12:28:43;8.50;99.90
44359;DHT22;30077;52.474;13.326;2024-03-06T12:38:44;7.60;99.90
44359;DHT22;30077;52.474;13.326;2024-03-06T12:48:45;8.20;99.90
44359;DHT22;30077;52.474;13.326;2024-03-06T12:58:45;8.30;99.90
44359;DHT22;30077;52.474;13.326;2024-03-06T13:08:46;8.30;99.90
44359;DHT22;30077;52.474;13.326;2024-03-06T13:18:47;8.40;99.90
44359;DHT22;30077;52.474;13.326;2024-03-06T13:28:48;8.20;99.90
44359;DHT22;30077;52.474;13.326;2024-03-06T13:38:49;8.30;99.90
44359;DHT22;30077;52.474;13.326;2024-03-06T13:48:50;8.00;99.90
44359;DHT22;30077;52.474;13.326;2024-03-06T13:58:50;8.20;99.90
44359;DHT22;30077;52.474;13.326;2024-03-06T14:08:51;8.30;99.90
44359;DHT22;30077;52.474;13.326;2024-03-06T14:18:52;7.80;99.90
44359;DHT22;30077;52.474;13.326;2024-03-06T14:28:53;7.90;99.90
44359;DHT22;30077;52.474;13.326;2024-03-06T14:38:54;7.90;99.90
44359;DHT22;30077;52.474;13.326;2024-03-06T14:48:55;7.90;99.90
44359;DHT22;30077;52.474;13.326;2024-03-06T14:58:57;7.80;99.90
44359;DHT22;30077;52.474;13.326;2024-03-06T15:08:59;7.80;99.90
44359;DHT22;30077;52.474;13.326;2024-03-06T15:19:00;8.00;99.90
44359;DHT22;30077;52.474;13.326;2024-03-06T15:29:03;7.90;99.90
44359;DHT22;30077;52.474;13.326;2024-03-06T15:39:08;7.80;99.90
44359;DHT22;30077;52.474;13.326;2024-03-06T15:49:20;7.80;99.90
44359;DHT22;30077;52.474;13.326;2024-03-06T15:59:21;7.80;99.90
44359;DHT22;30077;52.474;13.326;2024-03-06T16:09:22;7.80;99.90
44359;DHT22;30077;52.474;13.326;2024-03-06T16:19:23;7.70;99.90
44359;DHT22;30077;52.474;13.326;2024-03-06T16:29:24;7.60;99.90
44359;DHT22;30077;52.474;13.326;2024-03-06T16:39:24;7.70;99.90
44359;DHT22;30077;52.474;13.326;2024-03-06T16:49:25;7.50;99.90
44359;DHT22;30077;52.474;13.326;2024-03-06T16:59:26;7.40;99.90
44359;DHT22;30077;52.474;13.326;2024-03-06T17:09:26;7.50;99.90
44359;DHT22;30077;52.474;13.326;2024-03-06T17:19:27;7.40;99.90
44359;DHT22;30077;52.474;13.326;2024-03-06T17:29:28;7.40;99.90
44359;DHT22;30077;52.474;13.326;2024-03-06T17:39:29;7.30;99.90
44359;DHT22;30077;52.474;13.326;2024-03-06T17:49:29;7.30;99.90
44359;DHT22;30077;52.474;13.326;2024-03-06T17:59:30;7.30;99.90
44359;DHT22;30077;52.474;13.326;2024-03-06T18:09:31;7.30;99.90
44359;DHT22;30077;52.474;13.326;2024-03-06T18:19:32;7.20;99.90
44359;DHT22;30077;52.474;13.326;2024-03-06T18:29:33;7.20;99.90
44359;DHT22;30077;52.474;13.326;2024-03-06T18:39:33;7.20;99.90
44359;DHT22;30077;52.474;13.326;2024-03-06T18:49:34;7.10;99.90
44359;DHT22;30077;52.474;13.326;2024-03-06T18:59:35;7.10;99.90
44359;DHT22;30077;52.474;13.326;2024-03-06T19:09:36;7.00;99.90
44359;DHT22;30077;52.474;13.326;2024-03-06T19:19:36;7.00;99.90
44359;DHT22;30077;52.474;13.326;2024-03-06T19:29:37;6.90;99.90
44359;DHT22;30077;52.474;13.326;2024-03-06T19:39:41;7.00;99.90
44359;DHT22;30077;52.474;13.326;2024-03-06T19:49:42;6.90;99.90
44359;DHT22;30077;52.474;13.326;2024-03-06T19:59:42;6.90;99.90
44359;DHT22;30077;52.474;13.326;2024-03-06T20:09:43;6.90;99.90
44359;DHT22;30077;52.474;13.326;2024-03-06T20:19:44;6.90;99.90
44359;DHT22;30077;52.474;13.326;2024-03-06T20:29:46;6.90;99.90
44359;DHT22;30077;52.474;13.326;2024-03-06T20:39:46;6.80;99.90
44359;DHT22;30077;52.474;13.326;2024-03-06T20:49:47;6.70;99.90
44359;DHT22;30077;52.474;13.326;2024-03-06T20:59:48;6.70;99.90
44359;DHT22;30077;52.474;13.326;2024-03-06T21:09:50;6.70;99.90
44359;DHT22;30077;52.474;13.326;2024-03-06T21:19:51;6.80;99.90
44359;DHT22;30077;52.474;13.326;2024-03-06T21:29:53;6.60;99.90
44359;DHT22;30077;52.474;13.326;2024-03-06T21:39:54;6.70;99.90
44359;DHT22;30077;52.474;13.326;2024-03-06T21:49:55;6.60;99.90
44359;DHT22;30077;52.474;13.326;2024-03-06T21:59:56;6.60;99.90
44359;DHT22;30077;52.474;13.326;2024-03-06T22:09:57;6.70;99.90
44359;DHT22;30077;52.474;13.326;2024-03-06T22:19:58;6.50;99.90
44359;DHT22;30077;52.474;13.326;2024-03-06T22:29:59;6.60;99.90
44359;DHT22;30077;52.474;13.326;2024-03-06T22:40:01;6.60;99.90
44359;DHT22;30077;52.474;13.326;2024-03-06T22:50:02;6.50;99.90
44359;DHT22;30077;52.474;13.326;2024-03-06T23:00:03;6.50;99.90
44359;DHT22;30077;52.474;13.326;2024-03-06T23:10:08;6.50;99.90
44359;DHT22;30077;52.474;13.326;2024-03-06T23:20:10;6.50;99.90
44359;DHT22;30077;52.474;13.326;2024-03-06T23:30:13;6.50;99.90
44359;DHT22;30077;52.474;13.326;2024-03-06T23:40:14;6.40;99.90
44359;DHT22;30077;52.474;13.326;2024-03-06T23:50:15;6.50;99.90
